Time;durP1;ratioP1;P1;durP2;ratioP2;P2;SDS_P1;SDS_P2;PMS_P1;PMS_P2;Temp;Humidity;BMP_temperature;BMP_pressure;BME280_temperature;BME280_humidity;BME280_pressure;Samples;Min_cycle;Max_cycle;Signal;HPM_P1;HPM_P2
2022/06/09 00:00:13;;;;;;;6.03;5.50;;;18.70;99.90;;;18.86;65.21;100092.06;5011930;28;21169;-69
2022/06/09 00:02:48;;;;;;;8.13;7.30;;;18.70;99.90;;;18.95;64.88;100090.41;5005125;28;20452;-69
2022/06/09 00:05:17;;;;;;;7.10;5.17;;;18.70;99.90;;;19.02;64.55;100090.94;5007608;28;20508;-69
2022/06/09 00:07:48;;;;;;;5.87;5.27;;;18.80;99.50;;;19.14;64.05;100099.69;5007698;28;20455;-69
2022/06/09 00:10:23;;;;;;;5.97;5.40;;;18.90;98.30;;;19.35;63.15;100101.28;5010819;28;20816;-69
2022/06/09 00:12:52;;;;;;;6.53;5.30;;;19.00;97.10;;;19.45;63.06;100109.53;4993498;28;20941;-69
2022/06/09 00:15:21;;;;;;;5.43;4.93;;;19.20;95.80;;;19.68;62.16;100119.03;4992912;28;21064;-69
2022/06/09 00:17:51;;;;;;;5.30;4.90;;;19.40;93.40;;;19.63;62.01;100118.22;4998591;28;20447;-72
2022/06/09 00:20:21;;;;;;;4.93;4.50;;;19.40;92.00;;;19.60;62.03;100107.81;4997451;28;20452;-69
2022/06/09 00:22:50;;;;;;;6.03;5.47;;;19.40;90.80;;;19.43;62.65;100119.09;5008943;28;20568;-70
2022/06/09 00:25:20;;;;;;;5.60;4.83;;;19.30;91.70;;;19.53;61.63;100114.41;5007914;28;20925;-70
2022/06/09 00:27:48;;;;;;;5.50;4.30;;;19.30;89.50;;;19.59;61.34;100108.91;5005248;28;20808;-69
2022/06/09 00:30:19;;;;;;;4.53;3.40;;;19.40;86.00;;;19.56;61.24;100114.97;5047330;23;20496;-73
2022/06/09 00:32:48;;;;;;;5.30;3.77;;;19.40;83.00;;;19.49;61.43;100124.31;5047798;28;20500;-72
2022/06/09 00:35:18;;;;;;;7.30;4.87;;;19.30;84.70;;;19.42;62.16;100121.00;5038286;28;20493;-74
2022/06/09 00:37:48;;;;;;;4.30;3.90;;;19.30;88.30;;;19.35;62.41;100112.25;5035057;28;20804;-71
2022/06/09 00:40:18;;;;;;;4.73;3.67;;;19.20;90.00;;;19.44;62.55;100123.50;5044458;28;20536;-73
2022/06/09 00:42:47;;;;;;;4.53;4.13;;;19.20;91.00;;;19.42;62.49;100118.25;5048534;28;20463;-74
2022/06/09 00:45:38;;;;;;;3.93;3.63;;;19.30;91.00;;;19.44;62.75;100121.59;5041819;28;20509;-72
2022/06/09 00:48:26;;;;;;;4.50;4.10;;;19.20;91.80;;;19.32;62.88;100114.72;5016630;28;20597;-72
2022/06/09 00:51:03;;;;;;;4.77;3.97;;;19.20;92.10;;;19.29;63.24;100113.38;5034125;28;20494;-73
2022/06/09 00:53:38;;;;;;;3.97;3.57;;;19.20;92.90;;;19.41;62.67;100105.63;5043372;28;20496;-72
2022/06/09 00:56:09;;;;;;;8.30;3.83;;;19.20;92.60;;;19.29;63.07;100105.13;5040028;28;20444;-73
2022/06/09 00:58:44;;;;;;;3.93;3.50;;;19.10;92.50;;;19.30;63.21;100104.03;5047801;28;20474;-74
2022/06/09 01:01:18;;;;;;;3.60;3.10;;;19.10;93.10;;;19.29;63.14;100112.53;5042789;28;20534;-73
2022/06/09 01:03:55;;;;;;;3.53;3.10;;;19.10;93.80;;;19.13;63.76;100117.22;5039866;28;20414;-74
2022/06/09 01:06:33;;;;;;;3.77;3.37;;;19.00;95.00;;;19.08;63.89;100107.09;5044551;28;20452;-73
2022/06/09 01:09:09;;;;;;;3.57;3.27;;;18.90;96.30;;;19.00;64.12;100117.81;5042219;28;20466;-72
2022/06/09 01:11:40;;;;;;;3.40;3.07;;;18.80;96.70;;;18.94;64.23;100121.66;5048324;28;20458;-73
2022/06/09 01:14:13;;;;;;;3.87;3.57;;;18.80;97.20;;;18.88;64.08;100117.28;5049811;28;20460;-74
2022/06/09 01:16:55;;;;;;;5.10;3.20;;;18.70;96.70;;;18.81;64.29;100124.97;5052919;28;20825;-73
2022/06/09 01:20:16;;;;;;;3.20;2.90;;;18.60;97.80;;;18.80;64.62;100128.78;5045941;28;20501;-74
2022/06/09 01:23:39;;;;;;;3.73;3.40;;;18.60;98.40;;;18.72;64.66;100129.34;5044991;28;20504;-72
2022/06/09 01:26:33;;;;;;;3.50;3.20;;;18.50;98.70;;;18.60;65.15;100127.69;5000019;28;20832;-74
2022/06/09 01:29:32;;;;;;;4.00;3.60;;;18.40;99.50;;;18.62;65.22;100133.72;5039608;28;20910;-72
2022/06/09 01:32:10;;;;;;;4.30;3.90;;;18.40;99.90;;;18.55;65.01;100130.44;5041645;28;20924;-72
2022/06/09 01:34:55;;;;;;;3.67;3.37;;;18.40;99.90;;;18.43;65.38;100124.38;5047608;28;20435;-73
2022/06/09 01:37:30;;;;;;;4.90;3.53;;;18.30;99.90;;;18.42;65.57;100124.63;5039896;28;20765;-73
2022/06/09 01:40:03;;;;;;;5.33;3.67;;;18.20;99.90;;;18.38;65.27;100118.88;5046490;28;21252;-74
2022/06/09 01:42:35;;;;;;;4.60;3.60;;;18.20;99.90;;;18.40;65.40;100127.63;5044101;28;20518;-73
2022/06/09 01:45:10;;;;;;;3.30;3.00;;;18.20;99.90;;;18.31;65.67;100121.06;5043674;28;20768;-74
2022/06/09 01:47:52;;;;;;;3.60;3.30;;;18.20;99.90;;;18.27;65.66;100114.47;5031669;28;20490;-73
2022/06/09 01:50:32;;;;;;;3.37;2.83;;;18.20;99.90;;;18.24;65.92;100121.34;5039203;28;20943;-73
2022/06/09 01:53:08;;;;;;;2.80;2.60;;;18.00;99.90;;;18.19;65.95;100112.28;5048269;28;20421;-73
2022/06/09 01:55:47;;;;;;;4.13;3.70;;;18.00;99.90;;;18.17;65.70;100117.19;5035934;28;20438;-74
2022/06/09 01:58:28;;;;;;;3.80;3.40;;;18.00;99.90;;;18.10;65.50;100127.59;5043040;28;20940;-74
2022/06/09 02:01:00;;;;;;;3.77;2.93;;;17.90;99.90;;;18.11;65.57;100123.75;5042570;28;20481;-74
2022/06/09 02:03:37;;;;;;;3.00;2.70;;;17.90;99.90;;;18.13;65.75;100127.06;5046484;28;20439;-73
2022/06/09 02:06:09;;;;;;;2.40;2.20;;;17.90;99.90;;;18.09;65.58;100126.78;5039626;28;20481;-73
2022/06/09 02:08:40;;;;;;;2.40;1.93;;;17.90;99.90;;;18.12;65.54;100130.88;5022090;28;20422;-72
2022/06/09 02:11:13;;;;;;;2.60;2.37;;;17.90;99.90;;;18.12;65.35;100130.88;5024641;28;20475;-73
2022/06/09 02:13:49;;;;;;;3.17;2.80;;;17.90;99.90;;;18.04;65.35;100123.19;5032553;28;20470;-73
2022/06/09 02:16:23;;;;;;;3.53;3.00;;;17.90;99.90;;;17.94;65.56;100134.94;5042619;28;20439;-72
2022/06/09 02:18:57;;;;;;;2.50;2.30;;;17.80;99.90;;;17.97;65.39;100128.09;5048436;28;20418;-73
2022/06/09 02:21:33;;;;;;;3.00;2.70;;;17.80;99.90;;;17.97;65.36;100134.38;5031985;28;20453;-74
2022/06/09 02:24:03;;;;;;;2.30;2.10;;;17.80;99.90;;;18.00;65.00;100133.03;5040153;28;20438;-72
2022/06/09 02:26:32;;;;;;;3.77;2.80;;;17.80;99.60;;;18.00;64.61;100133.03;5040715;28;20439;-73
2022/06/09 02:29:02;;;;;;;2.40;2.10;;;17.80;98.40;;;17.89;65.00;100128.63;5043453;28;20472;-74
2022/06/09 02:31:31;;;;;;;3.37;2.03;;;17.80;98.80;;;17.88;64.81;100130.53;5046946;28;20465;-74
2022/06/09 02:34:03;;;;;;;2.83;2.53;;;17.70;98.60;;;17.86;64.70;100135.47;5038985;28;20749;-74
2022/06/09 02:36:32;;;;;;;2.30;2.10;;;17.70;98.20;;;17.81;64.53;100136.25;5035064;28;20444;-74
2022/06/09 02:39:01;;;;;;;2.33;1.67;;;17.60;97.40;;;17.91;64.49;100145.59;5039379;28;20473;-72
2022/06/09 02:41:30;;;;;;;4.07;2.60;;;17.70;97.90;;;17.91;64.24;100146.41;5042011;28;20486;-74
2022/06/09 02:43:59;;;;;;;8.97;2.10;;;17.70;97.20;;;17.79;64.58;100149.38;5040677;28;20491;-72
2022/06/09 02:46:28;;;;;;;2.37;2.17;;;17.60;97.10;;;17.76;64.68;100154.59;5042298;28;20455;-74
2022/06/09 02:48:58;;;;;;;2.50;2.10;;;17.60;97.40;;;17.66;64.92;100157.28;5043225;28;20419;-74
2022/06/09 02:51:33;;;;;;;2.83;1.73;;;17.50;97.60;;;17.65;64.98;100152.88;5039598;28;20810;-73
2022/06/09 02:54:08;;;;;;;2.73;2.53;;;17.50;98.20;;;17.65;64.97;100159.19;5042808;28;20432;-72
2022/06/09 02:56:37;;;;;;;2.27;2.03;;;17.50;98.50;;;17.60;65.21;100159.16;5042227;28;20454;-73
2022/06/09 02:59:06;;;;;;;3.00;2.70;;;17.40;98.80;;;17.47;65.62;100159.59;5041849;28;20815;-76
2022/06/09 03:01:36;;;;;;;2.37;2.17;;;17.40;99.40;;;17.33;66.07;100155.69;5041823;28;20961;-73
2022/06/09 03:04:06;;;;;;;5.40;2.57;;;17.30;99.90;;;17.33;66.24;100166.63;5043840;28;20440;-73
2022/06/09 03:06:37;;;;;;;3.33;2.20;;;17.20;99.90;;;17.29;66.08;100165.50;5042947;28;20844;-74
2022/06/09 03:09:06;;;;;;;2.20;2.00;;;17.20;99.90;;;17.28;66.50;100163.88;5039680;28;20450;-74
2022/06/09 03:11:35;;;;;;;2.40;2.20;;;17.20;99.90;;;17.24;66.58;100170.94;5028517;28;20437;-73
2022/06/09 03:14:04;;;;;;;2.93;2.40;;;17.10;99.90;;;17.19;66.82;100166.25;5040476;28;20454;-73
2022/06/09 03:16:33;;;;;;;2.70;2.40;;;17.10;99.90;;;17.16;66.96;100169.53;5041331;28;20809;-73
2022/06/09 03:19:28;;;;;;;5.73;1.90;;;17.00;99.90;;;17.03;67.36;100163.69;5045280;28;20418;-73
2022/06/09 03:21:58;;;;;;;2.87;2.20;;;17.00;99.90;;;17.14;67.28;100168.94;5037826;28;20454;-72
2022/06/09 03:24:27;;;;;;;5.70;2.90;;;17.00;99.90;;;17.17;66.97;100167.63;5038945;28;20805;-73
2022/06/09 03:26:57;;;;;;;2.60;2.40;;;17.00;99.90;;;17.04;67.57;100170.81;5036274;28;20923;-74
2022/06/09 03:29:27;;;;;;;3.13;2.40;;;16.90;99.90;;;16.97;67.69;100171.03;5041215;28;20456;-73
2022/06/09 03:31:56;;;;;;;3.27;2.10;;;16.90;99.90;;;17.01;67.84;100180.34;5040787;28;20446;-75
2022/06/09 03:34:25;;;;;;;2.37;1.83;;;16.90;99.90;;;17.00;67.54;100177.84;5045419;28;20470;-72
2022/06/09 03:36:54;;;;;;;2.60;2.23;;;16.90;99.90;;;17.04;67.50;100182.53;5042411;28;20462;-73
2022/06/09 03:39:24;;;;;;;4.23;2.80;;;16.90;99.90;;;17.00;67.72;100183.31;5030668;28;20448;-73
2022/06/09 03:41:53;;;;;;;2.30;2.10;;;16.80;99.90;;;17.18;67.02;100185.66;5040709;28;20497;-72
2022/06/09 03:44:23;;;;;;;2.93;2.73;;;16.90;99.90;;;17.26;66.59;100187.91;5049594;28;20939;-74
2022/06/09 03:46:52;;;;;;;4.97;2.67;;;17.00;99.90;;;17.32;66.35;100184.13;5042561;28;20435;-72
2022/06/09 03:49:21;;;;;;;2.70;2.40;;;17.00;99.90;;;17.38;66.09;100188.50;5040813;28;20659;-74
2022/06/09 03:51:50;;;;;;;2.73;2.03;;;17.10;99.90;;;17.57;65.76;100189.72;5046311;28;20459;-73
2022/06/09 03:54:19;;;;;;;3.60;2.67;;;17.20;99.90;;;18.45;63.12;100190.66;5048012;28;20442;-74
2022/06/09 03:56:51;;;;;;;3.10;2.30;;;17.50;99.90;;;19.78;59.32;100197.78;5035979;28;20825;-75
2022/06/09 03:59:20;;;;;;;4.50;2.90;;;18.10;95.50;;;21.00;56.00;100196.00;5042455;28;20443;-74
2022/06/09 04:01:49;;;;;;;2.67;2.13;;;18.80;87.00;;;22.02;53.00;100204.94;5042239;28;20880;-72
2022/06/09 04:04:18;;;;;;;2.30;2.10;;;19.60;61.90;;;21.45;53.89;100199.47;5035929;28;20447;-73
2022/06/09 04:06:47;;;;;;;3.47;2.10;;;20.10;48.90;;;21.33;53.98;100207.28;5050768;28;20418;-73
2022/06/09 04:09:17;;;;;;;3.97;2.40;;;20.20;43.30;;;21.15;54.33;100206.91;5032398;28;20440;-75
2022/06/09 04:11:46;;;;;;;2.27;2.03;;;20.10;43.10;;;21.82;52.88;100212.56;5050103;28;20437;-73
2022/06/09 04:14:16;;;;;;;2.07;1.70;;;20.40;40.90;;;22.23;51.57;100210.16;5053469;28;20449;-72
2022/06/09 04:16:46;;;;;;;4.00;2.30;;;20.80;35.40;;;22.52;50.75;100208.09;5051627;28;20439;-73
2022/06/09 04:19:18;;;;;;;4.47;2.50;;;20.90;32.00;;;23.36;48.74;100211.75;5044728;28;20455;-74
2022/06/09 04:21:47;;;;;;;2.60;2.00;;;21.20;31.20;;;22.00;51.55;100209.91;5049115;28;20458;-74
2022/06/09 04:24:18;;;;;;;2.77;2.37;;;21.10;28.30;;;22.05;51.69;100209.84;5056460;28;20971;-73
2022/06/09 04:26:48;;;;;;;2.03;1.83;;;21.00;28.80;;;22.78;49.59;100214.91;5051181;28;20410;-72
2022/06/09 04:29:19;;;;;;;4.27;1.97;;;21.20;28.10;;;23.35;48.98;100207.34;5053217;28;20433;-72
2022/06/09 04:31:48;;;;;;;2.47;2.27;;;21.50;27.20;;;24.00;47.34;100218.28;5046956;28;20443;-73
2022/06/09 04:34:17;;;;;;;2.87;1.73;;;21.80;25.20;;;24.28;46.70;100217.19;5043454;28;20423;-73
2022/06/09 04:36:46;;;;;;;3.40;1.87;;;22.00;23.50;;;24.78;45.49;100225.47;5041219;28;20439;-73
2022/06/09 04:39:15;;;;;;;3.87;1.80;;;22.60;20.80;;;25.05;44.83;100230.91;5047909;28;20443;-72
2022/06/09 04:41:45;;;;;;;2.33;2.13;;;22.80;19.50;;;25.49;43.89;100219.81;5039832;28;20543;-73
2022/06/09 04:44:14;;;;;;;2.53;2.00;;;23.10;17.60;;;24.05;46.77;100226.47;5042337;28;20444;-73
2022/06/09 04:46:44;;;;;;;5.83;2.20;;;22.70;17.20;;;22.10;51.23;100223.56;5037555;28;20452;-72
2022/06/09 04:49:13;;;;;;;2.70;1.83;;;21.90;19.50;;;23.54;48.69;100218.34;5037841;28;20506;-73
2022/06/09 04:51:43;;;;;;;1.80;1.70;;;21.70;20.90;;;24.47;46.43;100226.16;5040297;28;20976;-73
2022/06/09 04:54:11;;;;;;;2.50;2.30;;;22.30;19.70;;;24.58;46.26;100235.88;5045280;28;20897;-73
2022/06/09 04:56:41;;;;;;;2.57;1.70;;;22.40;18.80;;;24.71;45.47;100231.41;5044238;28;20453;-74
2022/06/09 04:59:10;;;;;;;2.23;1.63;;;22.80;17.20;;;25.16;45.19;100232.31;5042534;28;20405;-73
2022/06/09 05:01:39;;;;;;;4.13;1.63;;;23.00;17.00;;;26.63;42.80;100237.38;5038113;28;20534;-74
2022/06/09 05:04:10;;;;;;;2.33;2.00;;;23.00;16.30;;;27.33;40.99;100240.97;5038054;28;20904;-74
2022/06/09 05:06:39;;;;;;;2.97;1.70;;;23.60;15.00;;;26.44;41.83;100247.13;5048688;28;20417;-74
2022/06/09 05:09:08;;;;;;;4.23;2.33;;;24.00;12.50;;;25.32;43.96;100258.47;5043531;28;21119;-74
2022/06/09 05:11:37;;;;;;;3.00;1.43;;;24.10;11.30;;;25.20;44.30;100255.47;5037657;28;20474;-73
2022/06/09 05:14:06;;;;;;;2.00;1.63;;;23.90;11.70;;;25.66;43.48;100257.09;5043276;28;20420;-74
2022/06/09 05:16:35;;;;;;;2.40;1.90;;;23.90;11.80;;;24.25;46.38;100250.97;5049386;28;20413;-75
2022/06/09 05:19:04;;;;;;;2.50;1.83;;;23.60;12.00;;;22.68;50.10;100250.06;5034826;28;20485;-73
2022/06/09 05:21:36;;;;;;;2.80;1.67;;;22.50;14.90;;;21.94;51.79;100251.56;5042838;28;20992;-74
2022/06/09 05:24:06;;;;;;;1.50;1.40;;;21.60;17.40;;;20.87;54.22;100265.38;5035629;28;20446;-74
2022/06/09 05:26:36;;;;;;;3.67;1.70;;;20.90;19.80;;;20.47;55.45;100265.66;5033191;28;20522;-74
2022/06/09 05:29:06;;;;;;;2.07;1.60;;;20.50;22.50;;;19.84;57.82;100273.53;5041594;28;20564;-73
2022/06/09 05:31:35;;;;;;;2.10;1.63;;;19.90;26.70;;;19.95;57.59;100264.97;5039131;28;21055;-73
2022/06/09 05:34:04;;;;;;;2.73;2.00;;;19.60;31.70;;;20.00;57.07;100269.63;5041977;28;20414;-72
2022/06/09 05:36:35;;;;;;;3.10;1.53;;;19.60;34.10;;;19.80;57.94;100278.75;5038070;28;20898;-73
2022/06/09 05:44:53;;;;;;;2.47;1.57;;;19.50;38.60;;;19.64;58.30;100295.53;5037156;28;20443;-73
2022/06/09 05:47:25;;;;;;;2.33;1.40;;;19.40;41.00;;;19.76;58.18;100299.63;5045982;28;20425;-73
2022/06/09 05:49:55;;;;;;;2.00;1.43;;;19.40;43.10;;;20.07;57.70;100300.38;5040898;28;20506;-73
2022/06/09 05:52:29;;;;;;;2.23;1.10;;;19.60;43.90;;;20.05;57.25;100290.75;5039583;28;20459;-72
2022/06/09 05:54:58;;;;;;;2.07;1.10;;;19.70;40.50;;;20.24;56.64;100300.03;5048276;28;20406;-73
2022/06/09 05:57:28;;;;;;;2.37;1.47;;;19.70;39.80;;;19.97;56.92;100300.41;5032758;28;20779;-73
2022/06/09 05:59:58;;;;;;;2.43;1.83;;;19.60;38.80;;;19.60;57.68;100316.41;5043753;28;20423;-73
2022/06/09 06:02:28;;;;;;;1.40;1.10;;;19.40;39.70;;;19.60;58.19;100310.91;5044613;28;20854;-72
2022/06/09 06:04:57;;;;;;;2.47;1.60;;;19.30;42.60;;;19.36;58.89;100310.63;5033438;28;20436;-74
2022/06/09 06:07:28;;;;;;;1.40;0.80;;;19.20;43.70;;;19.02;60.05;100322.09;5041416;28;20565;-73
2022/06/09 06:09:57;;;;;;;2.93;1.43;;;19.00;47.00;;;18.95;60.20;100320.69;5029852;28;20424;-74
2022/06/09 06:12:26;;;;;;;2.67;1.30;;;18.80;51.80;;;18.95;60.63;100320.69;5029410;28;20454;-75
2022/06/09 06:14:55;;;;;;;1.83;1.10;;;18.70;56.50;;;18.91;60.38;100331.38;5029510;28;20449;-74
2022/06/09 06:17:24;;;;;;;1.80;1.37;;;18.70;55.90;;;19.10;60.47;100328.97;5029452;28;20428;-72
2022/06/09 06:19:53;;;;;;;1.30;1.00;;;18.80;59.20;;;19.22;60.15;100332.25;5033569;28;20530;-74
2022/06/09 06:22:22;;;;;;;1.70;1.07;;;18.90;58.20;;;19.51;59.32;100327.91;5029095;28;20464;-74
2022/06/09 06:24:52;;;;;;;4.90;1.00;;;19.10;56.60;;;19.67;59.03;100334.22;5046735;28;20816;-73
2022/06/09 06:27:21;;;;;;;1.63;1.10;;;19.20;57.10;;;19.81;59.17;100334.47;5043410;28;20447;-75
2022/06/09 06:30:13;;;;;;;2.60;1.50;;;19.40;57.20;;;20.15;58.40;100337.44;5048111;28;20937;-74
2022/06/09 06:32:42;;;;;;;4.07;1.53;;;19.60;55.50;;;19.46;60.01;100347.13;5044624;28;20469;-71
2022/06/09 06:35:11;;;;;;;7.70;1.73;;;19.40;54.40;;;19.68;60.10;100346.84;5045107;28;20435;-73
2022/06/09 06:37:44;;;;;;;2.13;1.30;;;19.40;59.50;;;19.86;59.65;100353.69;5046312;28;20497;-74
2022/06/09 06:40:16;;;;;;;2.53;1.43;;;19.40;59.10;;;20.10;59.16;100354.75;5042670;28;20789;-72
2022/06/09 06:42:46;;;;;;;1.70;1.20;;;19.70;57.30;;;20.24;58.90;100360.47;5042150;28;20525;-72
2022/06/09 06:45:18;;;;;;;2.93;2.00;;;19.70;58.60;;;20.36;58.25;100352.81;5045481;28;20445;-72
2022/06/09 06:47:47;;;;;;;2.30;1.73;;;19.90;55.10;;;20.45;58.40;100344.78;5041159;28;20936;-73
2022/06/09 06:50:17;;;;;;;2.20;1.47;;;19.90;55.60;;;20.35;58.18;100362.97;5044702;28;20424;-73
2022/06/09 06:52:46;;;;;;;5.70;1.50;;;20.00;51.20;;;20.15;58.88;100359.41;5042045;28;20827;-73
2022/06/09 06:55:20;;;;;;;3.70;1.57;;;19.90;53.10;;;20.20;58.92;100360.22;5050124;28;20413;-73
2022/06/09 06:57:49;;;;;;;4.40;1.20;;;19.80;53.70;;;20.63;57.86;100363.41;5049138;28;20920;-72
2022/06/09 07:00:22;;;;;;;4.13;1.37;;;20.10;53.90;;;20.41;58.65;100365.69;5044984;28;20920;-73
2022/06/09 07:03:17;;;;;;;2.97;1.53;;;20.00;52.00;;;20.26;58.70;100366.53;5029008;28;20965;-72
2022/06/09 07:06:01;;;;;;;2.40;2.10;;;19.90;52.50;;;20.47;58.00;100378.31;5030315;28;20423;-73
2022/06/09 07:08:31;;;;;;;3.00;1.47;;;20.00;51.00;;;20.33;58.69;100378.91;5030555;28;20436;-72
2022/06/09 07:11:01;;;;;;;2.40;1.47;;;20.00;52.70;;;20.25;58.98;100379.44;5030598;28;20422;-73
2022/06/09 07:13:30;;;;;;;1.70;1.30;;;20.00;52.90;;;20.11;59.10;100378.38;5031485;28;20399;-73
2022/06/09 07:16:00;;;;;;;2.13;1.20;;;19.80;52.90;;;20.16;59.25;100381.13;5037373;28;20462;-73
2022/06/09 07:18:30;;;;;;;2.33;1.30;;;19.80;54.80;;;20.16;58.69;100392.09;5045306;28;20439;-73
2022/06/09 07:21:00;;;;;;;1.93;1.30;;;19.80;52.10;;;19.49;60.59;100390.50;5044615;28;20488;-73
2022/06/09 07:23:31;;;;;;;6.30;1.43;;;19.50;55.00;;;19.48;60.90;100390.75;5043807;28;20426;-73
2022/06/09 07:26:03;;;;;;;1.97;1.70;;;19.30;59.40;;;19.39;61.09;100393.19;5051149;28;20397;-72
2022/06/09 07:28:33;;;;;;;4.30;2.03;;;19.20;64.50;;;19.28;61.81;100390.69;5049414;28;20405;-72
2022/06/09 07:31:05;;;;;;;1.80;1.30;;;19.10;71.10;;;19.08;62.60;100400.53;5050609;28;20437;-72
2022/06/09 07:33:38;;;;;;;4.93;1.50;;;19.00;77.10;;;18.85;63.54;100401.00;5047042;28;20423;-74
2022/06/09 07:36:12;;;;;;;3.80;1.50;;;18.70;87.90;;;18.80;63.84;100400.16;5048829;28;20431;-73
2022/06/09 07:38:42;;;;;;;3.93;1.50;;;18.60;91.60;;;19.09;63.02;100409.56;5052704;28;20427;-72
2022/06/09 07:41:14;;;;;;;2.70;1.50;;;18.80;91.60;;;19.19;62.25;100417.84;5053091;28;20458;-73
2022/06/09 07:44:02;;;;;;;2.87;1.87;;;18.80;89.90;;;19.13;62.46;100424.38;5052416;28;20922;-73
2022/06/09 07:46:32;;;;;;;2.50;1.50;;;18.80;90.10;;;19.45;61.96;100425.06;5052833;28;20420;-74
2022/06/09 07:49:02;;;;;;;1.40;1.27;;;19.00;90.80;;;19.64;61.47;100422.63;5053420;28;20402;-73
2022/06/09 07:51:32;;;;;;;4.10;2.53;;;19.10;88.50;;;19.60;61.06;100420.69;5053930;28;20453;-74
2022/06/09 07:54:02;;;;;;;2.00;1.40;;;19.20;82.90;;;19.31;61.78;100432.16;5052536;28;20469;-73
2022/06/09 07:56:33;;;;;;;2.23;2.03;;;19.00;82.50;;;19.26;62.21;100434.03;5053290;28;20429;-73
2022/06/09 07:59:03;;;;;;;2.90;1.70;;;19.00;85.00;;;19.19;62.31;100437.03;5050874;28;20439;-73
2022/06/09 08:01:33;;;;;;;4.60;2.10;;;18.90;86.00;;;19.26;62.43;100447.75;5049951;28;20445;-72
2022/06/09 08:04:03;;;;;;;3.77;1.90;;;18.90;89.80;;;18.81;63.24;100451.97;5047496;28;20462;-73
2022/06/09 08:06:33;;;;;;;3.20;2.13;;;18.70;90.60;;;18.60;64.33;100450.22;5030772;28;20409;-73
2022/06/09 08:09:03;;;;;;;5.03;2.00;;;18.50;94.20;;;18.47;64.75;100462.44;5049530;28;20893;-74
2022/06/09 08:11:38;;;;;;;2.97;1.83;;;18.30;96.90;;;18.43;65.06;100455.03;5053745;28;20432;-72
2022/06/09 08:14:09;;;;;;;3.90;2.43;;;18.20;99.20;;;18.55;65.13;100464.72;5049824;28;20435;-73
2022/06/09 08:16:38;;;;;;;2.07;1.77;;;18.30;99.40;;;18.71;64.80;100467.53;5057315;28;20398;-72
2022/06/09 08:19:08;;;;;;;2.83;1.70;;;18.40;99.60;;;18.86;64.18;100476.66;5054872;28;20924;-72
2022/06/09 08:21:42;;;;;;;2.40;1.90;;;18.50;98.40;;;18.93;63.78;100473.66;5050160;28;20815;-73
2022/06/09 08:24:21;;;;;;;6.30;2.83;;;18.60;97.60;;;19.03;64.09;100470.97;5034456;28;20474;-72
2022/06/09 08:26:52;;;;;;;3.93;2.80;;;18.70;97.60;;;19.13;63.83;100470.19;5058380;28;20406;-73
2022/06/09 08:29:26;;;;;;;5.10;2.30;;;18.70;98.00;;;19.27;63.44;100466.66;5058772;28;20535;-74
2022/06/09 08:31:55;;;;;;;3.10;2.37;;;18.80;97.10;;;19.03;63.86;100477.28;5055066;28;20470;-72
2022/06/09 08:34:25;;;;;;;1.97;1.83;;;18.80;96.00;;;18.98;63.98;100484.66;5059605;28;20436;-73
2022/06/09 08:36:55;;;;;;;2.13;1.93;;;18.70;97.00;;;18.48;65.50;100486.03;5028285;28;20437;-74
2022/06/09 08:39:24;;;;;;;3.30;1.97;;;18.40;98.70;;;18.33;66.33;100485.91;5059720;28;20438;-72
2022/06/09 08:42:19;;;;;;;3.63;2.10;;;18.20;99.90;;;18.58;65.73;100493.50;5041076;28;20932;-72
2022/06/09 08:44:57;;;;;;;4.00;2.30;;;18.30;99.90;;;18.53;66.23;100488.81;5040387;28;20463;-74
2022/06/09 08:47:36;;;;;;;2.53;2.30;;;18.40;99.90;;;18.55;67.11;100497.59;5033915;28;20889;-74
2022/06/09 08:50:18;;;;;;;3.50;2.17;;;18.30;99.90;;;18.43;67.15;100504.34;5046995;28;20406;-74
2022/06/09 08:52:59;;;;;;;6.00;3.27;;;18.30;99.90;;;18.14;69.25;100506.56;5033021;28;20517;-74
2022/06/09 08:55:39;;;;;;;6.53;3.90;;;18.00;99.90;;;18.22;70.31;100512.38;5053726;28;20872;-74
2022/06/09 08:58:18;;;;;;;4.37;2.50;;;18.00;99.90;;;18.35;69.55;100519.31;5053375;28;20418;-74
2022/06/09 09:00:54;;;;;;;2.97;2.70;;;18.00;99.90;;;18.23;70.05;100515.97;5054327;28;20405;-74
2022/06/09 09:03:32;;;;;;;3.20;2.90;;;18.00;99.90;;;18.50;69.72;100515.88;5040541;28;20457;-74
2022/06/09 09:06:07;;;;;;;2.67;2.10;;;18.10;99.90;;;18.63;69.11;100526.44;5041189;28;20483;-73
2022/06/09 09:08:37;;;;;;;3.43;3.00;;;18.20;99.90;;;18.56;70.47;100523.91;5033663;28;20827;-74
2022/06/09 09:11:40;;;;;;;3.93;3.30;;;18.20;99.90;;;18.72;71.53;100535.81;5050187;28;20470;-73
2022/06/09 09:14:17;;;;;;;4.07;2.60;;;18.20;99.90;;;18.88;71.53;100531.25;5032957;28;20763;-73
2022/06/09 09:16:58;;;;;;;3.73;3.33;;;18.40;99.90;;;18.85;69.61;100529.84;5050077;28;20449;-73
2022/06/09 09:19:51;;;;;;;4.10;3.10;;;18.50;99.90;;;19.00;68.68;100531.84;5041876;28;20783;-72
2022/06/09 09:22:35;;;;;;;3.77;2.87;;;18.60;99.90;;;18.90;69.09;100535.34;5030980;28;20534;-71
2022/06/09 09:25:27;;;;;;;4.20;3.10;;;18.60;99.90;;;18.95;68.17;100534.56;5030785;28;20860;-73
2022/06/09 09:28:09;;;;;;;4.40;3.10;;;18.70;99.90;;;19.39;67.04;100535.03;5035318;28;20413;-72
2022/06/09 09:30:51;;;;;;;4.33;3.53;;;18.90;99.90;;;19.36;66.79;100533.66;5050599;28;20414;-73
2022/06/09 09:33:22;;;;;;;4.43;3.13;;;19.00;99.90;;;19.29;68.19;100535.00;5032912;28;20514;-74
2022/06/09 09:35:59;;;;;;;4.17;3.60;;;18.90;99.90;;;19.62;65.77;100533.75;5048464;28;20432;-73
2022/06/09 09:38:41;;;;;;;3.60;2.73;;;19.20;99.90;;;19.50;65.75;100534.84;5034455;28;20822;-73
2022/06/09 09:41:28;;;;;;;4.90;3.60;;;19.20;99.90;;;19.62;65.52;100533.75;5031872;28;20479;-73
2022/06/09 09:43:57;;;;;;;3.80;3.40;;;19.20;99.90;;;19.42;64.33;100529.00;5039899;28;20410;-73
2022/06/09 09:46:34;;;;;;;3.60;2.80;;;19.20;99.90;;;19.58;64.84;100528.00;5036485;28;20437;-73
2022/06/09 09:49:15;;;;;;;5.47;3.70;;;19.30;99.90;;;19.89;64.17;100539.88;5046733;28;20957;-73
2022/06/09 09:51:46;;;;;;;3.47;3.17;;;19.50;99.90;;;20.18;63.70;100541.00;5045651;28;20462;-74
2022/06/09 09:54:23;;;;;;;3.53;3.03;;;19.70;99.90;;;20.43;64.05;100542.94;5047276;28;20434;-73
2022/06/09 09:57:07;;;;;;;3.37;2.93;;;19.80;99.90;;;20.46;62.83;100542.41;5051408;28;20420;-74
2022/06/09 09:59:48;;;;;;;3.93;3.27;;;20.00;97.30;;;20.57;62.73;100551.47;5035746;28;20421;-74
2022/06/09 10:08:39;;;;;;;5.70;3.40;;;19.80;94.10;;;20.41;62.88;100563.56;5029850;28;20443;-73
2022/06/09 10:11:54;;;;;;;5.30;2.80;;;20.00;96.70;;;20.46;61.90;100567.16;5030167;28;20448;-73
2022/06/09 10:14:52;;;;;;;3.30;3.00;;;20.10;92.70;;;20.82;60.68;100573.41;5029516;28;20463;-72
2022/06/09 10:17:50;;;;;;;4.43;2.50;;;20.30;87.90;;;20.53;60.32;100566.84;5030174;28;20411;-72
2022/06/09 10:20:41;;;;;;;3.43;2.90;;;20.20;78.50;;;20.69;60.44;100572.06;5039183;28;20533;-74
2022/06/09 10:23:44;;;;;;;4.20;3.23;;;20.30;82.40;;;20.78;59.81;100570.41;5039657;28;20439;-74
2022/06/09 10:26:18;;;;;;;5.07;2.80;;;20.40;74.10;;;20.84;59.44;100584.97;5017783;28;20450;-73
2022/06/09 10:28:59;;;;;;;4.87;2.77;;;20.50;68.40;;;20.92;58.77;100587.16;5045507;28;20405;-73
2022/06/09 10:31:43;;;;;;;6.27;3.83;;;20.50;63.00;;;20.80;58.54;100587.47;5048859;28;20458;-73
2022/06/09 10:34:35;;;;;;;3.43;2.60;;;20.50;58.80;;;20.75;59.37;100589.38;5038964;28;20407;-74
2022/06/09 10:37:19;;;;;;;4.90;3.17;;;20.40;64.80;;;20.49;59.63;100593.25;5028968;28;20910;-73
2022/06/09 10:39:57;;;;;;;5.00;3.33;;;20.30;64.20;;;20.30;59.56;100599.28;5028968;28;20398;-74
2022/06/09 10:42:35;;;;;;;3.40;2.93;;;20.20;58.00;;;20.92;58.31;100597.31;5014013;28;20500;-73
2022/06/09 10:45:22;;;;;;;3.47;3.17;;;20.40;59.40;;;21.23;56.86;100593.44;5037778;28;20559;-74
2022/06/09 10:56:54;;;;;;;7.03;3.40;;;20.40;50.00;;;20.67;58.33;100611.94;5048970;28;20465;-74
2022/06/09 10:59:34;;;;;;;4.53;3.17;;;20.30;53.20;;;20.55;57.74;100608.63;5051875;28;20872;-74
2022/06/09 11:02:11;;;;;;;5.13;3.90;;;20.30;49.80;;;20.73;57.85;100610.81;5048709;28;20444;-73